sensor_id;sensor_type;location;lat;lon;timestamp;P1;durP1;ratioP1;P2;durP2;ratioP2
80253;SDS011;69563;37.974;23.708;2023-04-24T00:00:23;15.63;;;10.00;;
80253;SDS011;69563;37.974;23.708;2023-04-24T00:02:49;14.13;;;10.02;;
80253;SDS011;69563;37.974;23.708;2023-04-24T00:05:15;15.23;;;10.32;;
80253;SDS011;69563;37.974;23.708;2023-04-24T00:07:42;16.65;;;10.55;;
80253;SDS011;69563;37.974;23.708;2023-04-24T00:10:10;16.80;;;10.30;;
80253;SDS011;69563;37.974;23.708;2023-04-24T00:12:36;17.73;;;10.75;;
80253;SDS011;69563;37.974;23.708;2023-04-24T00:15:03;15.90;;;10.57;;
80253;SDS011;69563;37.974;23.708;2023-04-24T00:17:29;15.75;;;10.30;;
80253;SDS011;69563;37.974;23.708;2023-04-24T00:19:55;16.30;;;10.93;;
80253;SDS011;69563;37.974;23.708;2023-04-24T00:22:27;15.52;;;10.35;;
80253;SDS011;69563;37.974;23.708;2023-04-24T00:24:53;17.10;;;10.38;;
80253;SDS011;69563;37.974;23.708;2023-04-24T00:27:19;19.98;;;11.00;;
80253;SDS011;69563;37.974;23.708;2023-04-24T00:29:45;13.63;;;9.88;;
80253;SDS011;69563;37.974;23.708;2023-04-24T00:32:11;15.88;;;9.90;;
80253;SDS011;69563;37.974;23.708;2023-04-24T00:34:36;17.58;;;10.07;;
80253;SDS011;69563;37.974;23.708;2023-04-24T00:37:02;15.80;;;9.85;;
80253;SDS011;69563;37.974;23.708;2023-04-24T00:39:28;16.63;;;9.73;;
80253;SDS011;69563;37.974;23.708;2023-04-24T00:41:54;14.63;;;10.07;;
80253;SDS011;69563;37.974;23.708;2023-04-24T00:44:20;12.35;;;9.50;;
80253;SDS011;69563;37.974;23.708;2023-04-24T00:46:46;14.57;;;9.90;;
80253;SDS011;69563;37.974;23.708;2023-04-24T00:49:16;13.15;;;9.70;;
80253;SDS011;69563;37.974;23.708;2023-04-24T00:51:43;17.60;;;10.35;;
80253;SDS011;69563;37.974;23.708;2023-04-24T00:54:11;17.90;;;9.82;;
80253;SDS011;69563;37.974;23.708;2023-04-24T00:56:37;16.88;;;10.27;;
80253;SDS011;69563;37.974;23.708;2023-04-24T00:59:03;16.98;;;10.00;;
80253;SDS011;69563;37.974;23.708;2023-04-24T01:01:29;17.40;;;10.43;;
80253;SDS011;69563;37.974;23.708;2023-04-24T01:03:55;15.50;;;10.07;;
80253;SDS011;69563;37.974;23.708;2023-04-24T01:06:22;16.67;;;10.25;;
80253;SDS011;69563;37.974;23.708;2023-04-24T01:08:52;15.50;;;9.65;;
80253;SDS011;69563;37.974;23.708;2023-04-24T01:11:18;15.60;;;10.35;;
80253;SDS011;69563;37.974;23.708;2023-04-24T01:13:43;14.73;;;9.73;;
80253;SDS011;69563;37.974;23.708;2023-04-24T01:16:10;15.30;;;10.48;;
80253;SDS011;69563;37.974;23.708;2023-04-24T01:18:36;12.60;;;9.38;;
80253;SDS011;69563;37.974;23.708;2023-04-24T01:21:03;15.07;;;9.63;;
80253;SDS011;69563;37.974;23.708;2023-04-24T01:23:29;14.52;;;9.20;;
80253;SDS011;69563;37.974;23.708;2023-04-24T01:25:55;17.85;;;10.32;;
80253;SDS011;69563;37.974;23.708;2023-04-24T01:28:21;14.73;;;9.88;;
80253;SDS011;69563;37.974;23.708;2023-04-24T01:30:47;15.13;;;10.10;;
80253;SDS011;69563;37.974;23.708;2023-04-24T01:33:13;15.73;;;10.15;;
80253;SDS011;69563;37.974;23.708;2023-04-24T01:35:38;15.93;;;9.75;;
80253;SDS011;69563;37.974;23.708;2023-04-24T01:38:04;14.05;;;9.63;;
80253;SDS011;69563;37.974;23.708;2023-04-24T01:40:30;14.27;;;9.93;;
80253;SDS011;69563;37.974;23.708;2023-04-24T01:42:57;17.63;;;9.98;;
80253;SDS011;69563;37.974;23.708;2023-04-24T01:45:23;14.20;;;9.52;;
80253;SDS011;69563;37.974;23.708;2023-04-24T01:47:49;14.60;;;9.93;;
80253;SDS011;69563;37.974;23.708;2023-04-24T01:50:15;17.13;;;9.75;;
80253;SDS011;69563;37.974;23.708;2023-04-24T01:52:41;13.27;;;9.45;;
80253;SDS011;69563;37.974;23.708;2023-04-24T01:55:07;17.05;;;9.60;;
80253;SDS011;69563;37.974;23.708;2023-04-24T01:57:33;16.52;;;10.32;;
80253;SDS011;69563;37.974;23.708;2023-04-24T01:59:59;17.73;;;10.23;;
80253;SDS011;69563;37.974;23.708;2023-04-24T02:02:25;15.55;;;10.27;;
80253;SDS011;69563;37.974;23.708;2023-04-24T02:04:54;13.38;;;9.27;;
80253;SDS011;69563;37.974;23.708;2023-04-24T02:07:20;15.80;;;9.57;;
80253;SDS011;69563;37.974;23.708;2023-04-24T02:09:46;15.43;;;10.27;;
80253;SDS011;69563;37.974;23.708;2023-04-24T02:12:12;16.83;;;10.57;;
80253;SDS011;69563;37.974;23.708;2023-04-24T02:14:40;16.40;;;10.70;;
80253;SDS011;69563;37.974;23.708;2023-04-24T02:17:07;17.70;;;9.90;;
80253;SDS011;69563;37.974;23.708;2023-04-24T02:19:33;14.63;;;10.60;;
80253;SDS011;69563;37.974;23.708;2023-04-24T02:21:58;13.48;;;9.75;;
80253;SDS011;69563;37.974;23.708;2023-04-24T02:24:24;14.45;;;10.13;;
80253;SDS011;69563;37.974;23.708;2023-04-24T02:26:50;15.00;;;10.20;;
80253;SDS011;69563;37.974;23.708;2023-04-24T02:29:16;16.27;;;9.82;;
80253;SDS011;69563;37.974;23.708;2023-04-24T02:31:41;14.40;;;9.65;;
80253;SDS011;69563;37.974;23.708;2023-04-24T02:34:07;16.75;;;9.85;;
80253;SDS011;69563;37.974;23.708;2023-04-24T02:36:33;13.85;;;10.15;;
80253;SDS011;69563;37.974;23.708;2023-04-24T02:38:58;14.05;;;10.40;;
80253;SDS011;69563;37.974;23.708;2023-04-24T02:41:25;18.77;;;10.23;;
80253;SDS011;69563;37.974;23.708;2023-04-24T02:43:56;14.00;;;10.32;;
80253;SDS011;69563;37.974;23.708;2023-04-24T02:46:22;15.00;;;10.30;;
80253;SDS011;69563;37.974;23.708;2023-04-24T02:48:47;15.00;;;9.73;;
80253;SDS011;69563;37.974;23.708;2023-04-24T02:51:13;14.45;;;10.13;;
80253;SDS011;69563;37.974;23.708;2023-04-24T02:53:39;15.23;;;9.75;;
80253;SDS011;69563;37.974;23.708;2023-04-24T02:56:05;16.80;;;9.90;;
80253;SDS011;69563;37.974;23.708;2023-04-24T02:58:30;14.65;;;9.50;;
80253;SDS011;69563;37.974;23.708;2023-04-24T03:00:56;15.02;;;9.50;;
80253;SDS011;69563;37.974;23.708;2023-04-24T03:03:22;14.48;;;9.82;;
80253;SDS011;69563;37.974;23.708;2023-04-24T03:05:48;15.27;;;10.27;;
80253;SDS011;69563;37.974;23.708;2023-04-24T03:08:15;14.52;;;10.00;;
80253;SDS011;69563;37.974;23.708;2023-04-24T03:10:41;14.70;;;10.02;;
80253;SDS011;69563;37.974;23.708;2023-04-24T03:13:07;12.90;;;9.45;;
80253;SDS011;69563;37.974;23.708;2023-04-24T03:15:33;16.52;;;10.65;;
80253;SDS011;69563;37.974;23.708;2023-04-24T03:17:59;16.00;;;9.60;;
80253;SDS011;69563;37.974;23.708;2023-04-24T03:20:25;13.02;;;9.35;;
80253;SDS011;69563;37.974;23.708;2023-04-24T03:22:51;14.63;;;9.60;;
80253;SDS011;69563;37.974;23.708;2023-04-24T03:25:17;13.98;;;9.68;;
80253;SDS011;69563;37.974;23.708;2023-04-24T03:27:42;15.25;;;9.80;;
80253;SDS011;69563;37.974;23.708;2023-04-24T03:30:08;14.48;;;10.07;;
80253;SDS011;69563;37.974;23.708;2023-04-24T03:32:34;15.45;;;10.48;;
80253;SDS011;69563;37.974;23.708;2023-04-24T03:35:00;19.67;;;9.90;;
80253;SDS011;69563;37.974;23.708;2023-04-24T03:37:26;19.38;;;9.15;;
80253;SDS011;69563;37.974;23.708;2023-04-24T03:39:51;21.92;;;8.90;;
80253;SDS011;69563;37.974;23.708;2023-04-24T03:42:17;17.98;;;8.73;;
80253;SDS011;69563;37.974;23.708;2023-04-24T03:44:43;16.27;;;9.77;;
80253;SDS011;69563;37.974;23.708;2023-04-24T03:47:09;18.65;;;9.27;;
80253;SDS011;69563;37.974;23.708;2023-04-24T03:49:35;15.90;;;9.35;;
80253;SDS011;69563;37.974;23.708;2023-04-24T03:52:00;18.00;;;8.68;;
80253;SDS011;69563;37.974;23.708;2023-04-24T03:54:26;16.70;;;9.57;;
80253;SDS011;69563;37.974;23.708;2023-04-24T03:56:52;16.90;;;9.18;;
80253;SDS011;69563;37.974;23.708;2023-04-24T03:59:18;16.20;;;9.60;;
80253;SDS011;69563;37.974;23.708;2023-04-24T04:01:44;16.75;;;9.15;;
80253;SDS011;69563;37.974;23.708;2023-04-24T04:04:10;16.35;;;8.63;;
80253;SDS011;69563;37.974;23.708;2023-04-24T04:06:36;16.42;;;8.77;;
80253;SDS011;69563;37.974;23.708;2023-04-24T04:09:02;13.95;;;8.88;;
80253;SDS011;69563;37.974;23.708;2023-04-24T04:11:28;16.55;;;8.88;;
80253;SDS011;69563;37.974;23.708;2023-04-24T04:13:54;16.35;;;9.20;;
80253;SDS011;69563;37.974;23.708;2023-04-24T04:16:20;17.50;;;9.30;;
80253;SDS011;69563;37.974;23.708;2023-04-24T04:18:46;13.73;;;9.07;;
80253;SDS011;69563;37.974;23.708;2023-04-24T04:21:12;13.10;;;9.27;;
80253;SDS011;69563;37.974;23.708;2023-04-24T04:23:37;17.83;;;9.32;;
80253;SDS011;69563;37.974;23.708;2023-04-24T04:26:04;18.30;;;9.52;;
80253;SDS011;69563;37.974;23.708;2023-04-24T04:28:31;15.73;;;9.50;;
80253;SDS011;69563;37.974;23.708;2023-04-24T04:30:57;18.67;;;9.63;;
80253;SDS011;69563;37.974;23.708;2023-04-24T04:33:23;19.58;;;9.70;;
80253;SDS011;69563;37.974;23.708;2023-04-24T04:35:49;18.20;;;9.48;;
80253;SDS011;69563;37.974;23.708;2023-04-24T04:38:21;17.13;;;9.90;;
80253;SDS011;69563;37.974;23.708;2023-04-24T04:40:48;16.75;;;9.45;;
80253;SDS011;69563;37.974;23.708;2023-04-24T04:43:14;21.80;;;9.93;;
80253;SDS011;69563;37.974;23.708;2023-04-24T04:45:42;19.30;;;9.32;;
80253;SDS011;69563;37.974;23.708;2023-04-24T04:48:09;18.10;;;9.57;;
80253;SDS011;69563;37.974;23.708;2023-04-24T04:50:38;17.48;;;9.63;;
80253;SDS011;69563;37.974;23.708;2023-04-24T04:53:04;15.60;;;9.30;;
80253;SDS011;69563;37.974;23.708;2023-04-24T04:55:30;15.75;;;9.40;;
80253;SDS011;69563;37.974;23.708;2023-04-24T04:57:56;17.83;;;10.07;;
80253;SDS011;69563;37.974;23.708;2023-04-24T05:00:22;18.23;;;10.05;;
80253;SDS011;69563;37.974;23.708;2023-04-24T05:02:50;19.60;;;9.60;;
80253;SDS011;69563;37.974;23.708;2023-04-24T05:05:16;17.27;;;9.77;;
80253;SDS011;69563;37.974;23.708;2023-04-24T05:07:42;16.23;;;9.77;;
80253;SDS011;69563;37.974;23.708;2023-04-24T05:10:09;16.63;;;9.60;;
80253;SDS011;69563;37.974;23.708;2023-04-24T05:12:35;16.55;;;10.13;;
80253;SDS011;69563;37.974;23.708;2023-04-24T05:15:01;18.02;;;9.95;;
80253;SDS011;69563;37.974;23.708;2023-04-24T05:17:27;16.52;;;10.10;;
80253;SDS011;69563;37.974;23.708;2023-04-24T05:19:53;14.55;;;9.43;;
80253;SDS011;69563;37.974;23.708;2023-04-24T05:22:19;17.63;;;9.05;;
80253;SDS011;69563;37.974;23.708;2023-04-24T05:24:46;15.40;;;8.88;;
80253;SDS011;69563;37.974;23.708;2023-04-24T05:27:12;15.18;;;8.75;;
80253;SDS011;69563;37.974;23.708;2023-04-24T05:29:38;18.83;;;8.88;;
80253;SDS011;69563;37.974;23.708;2023-04-24T05:32:05;12.25;;;7.60;;
80253;SDS011;69563;37.974;23.708;2023-04-24T05:34:31;13.48;;;7.75;;
80253;SDS011;69563;37.974;23.708;2023-04-24T05:36:56;13.45;;;7.32;;
80253;SDS011;69563;37.974;23.708;2023-04-24T05:39:22;11.95;;;7.15;;
80253;SDS011;69563;37.974;23.708;2023-04-24T05:41:50;12.98;;;7.32;;
80253;SDS011;69563;37.974;23.708;2023-04-24T05:44:16;10.93;;;7.10;;
80253;SDS011;69563;37.974;23.708;2023-04-24T05:46:41;11.90;;;6.80;;
80253;SDS011;69563;37.974;23.708;2023-04-24T05:49:07;15.93;;;7.40;;
80253;SDS011;69563;37.974;23.708;2023-04-24T05:51:33;14.48;;;7.25;;
80253;SDS011;69563;37.974;23.708;2023-04-24T05:53:58;11.05;;;6.70;;
80253;SDS011;69563;37.974;23.708;2023-04-24T05:56:24;9.95;;;6.07;;
80253;SDS011;69563;37.974;23.708;2023-04-24T05:58:50;11.68;;;6.40;;
80253;SDS011;69563;37.974;23.708;2023-04-24T06:01:16;12.73;;;6.97;;
80253;SDS011;69563;37.974;23.708;2023-04-24T06:03:42;9.32;;;6.35;;
80253;SDS011;69563;37.974;23.708;2023-04-24T06:06:08;12.55;;;5.78;;
80253;SDS011;69563;37.974;23.708;2023-04-24T06:08:34;8.68;;;5.32;;
80253;SDS011;69563;37.974;23.708;2023-04-24T06:11:00;9.07;;;5.80;;
80253;SDS011;69563;37.974;23.708;2023-04-24T06:13:26;10.95;;;5.63;;
80253;SDS011;69563;37.974;23.708;2023-04-24T06:15:52;10.20;;;5.13;;
80253;SDS011;69563;37.974;23.708;2023-04-24T06:18:18;10.32;;;5.45;;
80253;SDS011;69563;37.974;23.708;2023-04-24T06:20:45;8.10;;;4.88;;
80253;SDS011;69563;37.974;23.708;2023-04-24T06:23:12;8.57;;;4.75;;
80253;SDS011;69563;37.974;23.708;2023-04-24T06:25:38;9.80;;;5.03;;
80253;SDS011;69563;37.974;23.708;2023-04-24T06:28:04;8.43;;;4.90;;
80253;SDS011;69563;37.974;23.708;2023-04-24T06:30:29;6.32;;;4.55;;
80253;SDS011;69563;37.974;23.708;2023-04-24T06:32:55;7.70;;;4.65;;
80253;SDS011;69563;37.974;23.708;2023-04-24T06:35:21;9.43;;;4.15;;
80253;SDS011;69563;37.974;23.708;2023-04-24T06:37:47;6.97;;;4.05;;
80253;SDS011;69563;37.974;23.708;2023-04-24T06:40:13;12.70;;;4.13;;
80253;SDS011;69563;37.974;23.708;2023-04-24T06:42:39;10.32;;;4.07;;
80253;SDS011;69563;37.974;23.708;2023-04-24T06:45:05;9.32;;;4.35;;
80253;SDS011;69563;37.974;23.708;2023-04-24T06:47:31;9.80;;;4.65;;
80253;SDS011;69563;37.974;23.708;2023-04-24T06:49:57;6.75;;;4.07;;
80253;SDS011;69563;37.974;23.708;2023-04-24T06:52:22;9.07;;;4.57;;
80253;SDS011;69563;37.974;23.708;2023-04-24T06:54:48;6.80;;;3.70;;
80253;SDS011;69563;37.974;23.708;2023-04-24T06:57:14;7.80;;;4.18;;
80253;SDS011;69563;37.974;23.708;2023-04-24T06:59:41;6.13;;;3.35;;
80253;SDS011;69563;37.974;23.708;2023-04-24T07:02:07;7.07;;;4.75;;
80253;SDS011;69563;37.974;23.708;2023-04-24T07:04:33;6.63;;;3.63;;
80253;SDS011;69563;37.974;23.708;2023-04-24T07:06:58;8.77;;;3.50;;
80253;SDS011;69563;37.974;23.708;2023-04-24T07:09:25;4.93;;;3.10;;
80253;SDS011;69563;37.974;23.708;2023-04-24T07:11:54;8.07;;;3.83;;
80253;SDS011;69563;37.974;23.708;2023-04-24T07:14:21;6.35;;;3.25;;
80253;SDS011;69563;37.974;23.708;2023-04-24T07:16:47;6.97;;;2.95;;
80253;SDS011;69563;37.974;23.708;2023-04-24T07:19:13;8.07;;;4.60;;
80253;SDS011;69563;37.974;23.708;2023-04-24T07:21:39;6.63;;;4.13;;
80253;SDS011;69563;37.974;23.708;2023-04-24T07:24:09;6.38;;;3.88;;
80253;SDS011;69563;37.974;23.708;2023-04-24T07:26:36;5.00;;;3.13;;
80253;SDS011;69563;37.974;23.708;2023-04-24T07:29:02;9.63;;;3.80;;
80253;SDS011;69563;37.974;23.708;2023-04-24T07:31:32;6.95;;;3.70;;
80253;SDS011;69563;37.974;23.708;2023-04-24T07:33:58;6.38;;;3.53;;
80253;SDS011;69563;37.974;23.708;2023-04-24T07:36:24;5.68;;;2.60;;
80253;SDS011;69563;37.974;23.708;2023-04-24T07:38:51;5.10;;;2.80;;
80253;SDS011;69563;37.974;23.708;2023-04-24T07:41:20;4.03;;;2.55;;
80253;SDS011;69563;37.974;23.708;2023-04-24T07:43:49;4.88;;;2.53;;
80253;SDS011;69563;37.974;23.708;2023-04-24T07:46:15;4.00;;;2.60;;
80253;SDS011;69563;37.974;23.708;2023-04-24T07:48:41;4.20;;;2.30;;
80253;SDS011;69563;37.974;23.708;2023-04-24T07:51:07;3.78;;;2.22;;
80253;SDS011;69563;37.974;23.708;2023-04-24T07:53:35;3.90;;;2.20;;
80253;SDS011;69563;37.974;23.708;2023-04-24T07:56:00;5.50;;;2.55;;
80253;SDS011;69563;37.974;23.708;2023-04-24T07:58:29;4.38;;;2.13;;
80253;SDS011;69563;37.974;23.708;2023-04-24T08:00:55;6.07;;;2.28;;
80253;SDS011;69563;37.974;23.708;2023-04-24T08:03:21;5.03;;;2.38;;
80253;SDS011;69563;37.974;23.708;2023-04-24T08:05:47;4.20;;;2.20;;
80253;SDS011;69563;37.974;23.708;2023-04-24T08:08:13;4.03;;;2.40;;
80253;SDS011;69563;37.974;23.708;2023-04-24T08:10:41;4.75;;;2.40;;
80253;SDS011;69563;37.974;23.708;2023-04-24T08:13:07;4.55;;;2.47;;
80253;SDS011;69563;37.974;23.708;2023-04-24T08:15:39;5.15;;;2.47;;
80253;SDS011;69563;37.974;23.708;2023-04-24T08:18:06;4.80;;;2.75;;
80253;SDS011;69563;37.974;23.708;2023-04-24T08:20:32;4.43;;;2.55;;
80253;SDS011;69563;37.974;23.708;2023-04-24T08:22:58;4.57;;;2.72;;
80253;SDS011;69563;37.974;23.708;2023-04-24T08:25:23;5.68;;;2.55;;
80253;SDS011;69563;37.974;23.708;2023-04-24T08:27:51;9.45;;;3.25;;
80253;SDS011;69563;37.974;23.708;2023-04-24T08:30:17;5.07;;;2.83;;
80253;SDS011;69563;37.974;23.708;2023-04-24T08:32:47;5.38;;;2.47;;
80253;SDS011;69563;37.974;23.708;2023-04-24T08:35:13;5.70;;;2.55;;
80253;SDS011;69563;37.974;23.708;2023-04-24T08:37:40;4.78;;;2.60;;
80253;SDS011;69563;37.974;23.708;2023-04-24T08:40:15;8.15;;;2.70;;
80253;SDS011;69563;37.974;23.708;2023-04-24T08:42:44;4.32;;;2.53;;
80253;SDS011;69563;37.974;23.708;2023-04-24T08:45:10;5.07;;;2.40;;
80253;SDS011;69563;37.974;23.708;2023-04-24T08:47:37;6.68;;;2.30;;
80253;SDS011;69563;37.974;23.708;2023-04-24T08:50:05;10.45;;;2.30;;
80253;SDS011;69563;37.974;23.708;2023-04-24T08:52:32;4.43;;;2.30;;
80253;SDS011;69563;37.974;23.708;2023-04-24T08:54:59;4.78;;;2.40;;
80253;SDS011;69563;37.974;23.708;2023-04-24T08:57:26;5.13;;;2.70;;
80253;SDS011;69563;37.974;23.708;2023-04-24T08:59:52;7.05;;;3.50;;
80253;SDS011;69563;37.974;23.708;2023-04-24T09:02:19;5.40;;;2.50;;
80253;SDS011;69563;37.974;23.708;2023-04-24T09:04:47;5.15;;;2.80;;
80253;SDS011;69563;37.974;23.708;2023-04-24T09:07:14;10.40;;;2.90;;
80253;SDS011;69563;37.974;23.708;2023-04-24T09:09:41;5.60;;;2.35;;
80253;SDS011;69563;37.974;23.708;2023-04-24T09:12:07;4.60;;;2.70;;
80253;SDS011;69563;37.974;23.708;2023-04-24T09:14:35;3.97;;;2.40;;
80253;SDS011;69563;37.974;23.708;2023-04-24T09:17:04;6.22;;;2.50;;
80253;SDS011;69563;37.974;23.708;2023-04-24T09:19:34;4.70;;;2.40;;
80253;SDS011;69563;37.974;23.708;2023-04-24T09:21:59;5.18;;;2.47;;
80253;SDS011;69563;37.974;23.708;2023-04-24T09:26:57;4.32;;;2.50;;
80253;SDS011;69563;37.974;23.708;2023-04-24T09:29:24;4.47;;;2.60;;
80253;SDS011;69563;37.974;23.708;2023-04-24T09:31:50;4.07;;;2.28;;
80253;SDS011;69563;37.974;23.708;2023-04-24T09:34:20;5.57;;;2.38;;
80253;SDS011;69563;37.974;23.708;2023-04-24T09:36:47;3.78;;;2.28;;
80253;SDS011;69563;37.974;23.708;2023-04-24T09:39:14;3.65;;;2.28;;
80253;SDS011;69563;37.974;23.708;2023-04-24T09:41:56;3.53;;;2.45;;
80253;SDS011;69563;37.974;23.708;2023-04-24T09:44:24;3.85;;;2.10;;
80253;SDS011;69563;37.974;23.708;2023-04-24T09:49:28;4.28;;;2.40;;
80253;SDS011;69563;37.974;23.708;2023-04-24T09:52:04;4.72;;;2.30;;
80253;SDS011;69563;37.974;23.708;2023-04-24T09:54:32;3.20;;;2.15;;
80253;SDS011;69563;37.974;23.708;2023-04-24T09:56:58;6.13;;;2.50;;
80253;SDS011;69563;37.974;23.708;2023-04-24T09:59:25;4.78;;;2.22;;
80253;SDS011;69563;37.974;23.708;2023-04-24T10:01:51;4.82;;;2.67;;
80253;SDS011;69563;37.974;23.708;2023-04-24T10:06:48;4.47;;;2.45;;
80253;SDS011;69563;37.974;23.708;2023-04-24T10:09:15;4.38;;;2.20;;
80253;SDS011;69563;37.974;23.708;2023-04-24T10:11:43;5.85;;;2.50;;
80253;SDS011;69563;37.974;23.708;2023-04-24T10:14:13;3.47;;;2.30;;
80253;SDS011;69563;37.974;23.708;2023-04-24T10:16:40;4.47;;;2.40;;
80253;SDS011;69563;37.974;23.708;2023-04-24T10:19:07;4.20;;;2.17;;
80253;SDS011;69563;37.974;23.708;2023-04-24T10:21:34;4.10;;;2.13;;
80253;SDS011;69563;37.974;23.708;2023-04-24T10:24:00;4.60;;;2.30;;
80253;SDS011;69563;37.974;23.708;2023-04-24T10:26:28;5.60;;;2.20;;
80253;SDS011;69563;37.974;23.708;2023-04-24T10:28:57;3.97;;;2.30;;
80253;SDS011;69563;37.974;23.708;2023-04-24T10:31:26;4.53;;;2.28;;
80253;SDS011;69563;37.974;23.708;2023-04-24T10:33:55;3.30;;;2.00;;
80253;SDS011;69563;37.974;23.708;2023-04-24T10:36:25;4.65;;;2.15;;
80253;SDS011;69563;37.974;23.708;2023-04-24T10:38:53;4.38;;;2.20;;
80253;SDS011;69563;37.974;23.708;2023-04-24T10:41:21;3.20;;;2.13;;
80253;SDS011;69563;37.974;23.708;2023-04-24T10:46:32;6.10;;;2.75;;
80253;SDS011;69563;37.974;23.708;2023-04-24T10:48:58;4.68;;;2.50;;
80253;SDS011;69563;37.974;23.708;2023-04-24T10:51:25;4.72;;;2.45;;
80253;SDS011;69563;37.974;23.708;2023-04-24T10:59:49;8.27;;;2.58;;
80253;SDS011;69563;37.974;23.708;2023-04-24T11:02:16;5.47;;;2.30;;
80253;SDS011;69563;37.974;23.708;2023-04-24T11:04:43;9.05;;;3.00;;
80253;SDS011;69563;37.974;23.708;2023-04-24T11:07:10;4.43;;;2.33;;
80253;SDS011;69563;37.974;23.708;2023-04-24T11:09:36;6.10;;;2.72;;
80253;SDS011;69563;37.974;23.708;2023-04-24T11:20:06;4.20;;;2.55;;
80253;SDS011;69563;37.974;23.708;2023-04-24T11:22:38;4.32;;;2.72;;
80253;SDS011;69563;37.974;23.708;2023-04-24T11:25:07;4.15;;;2.40;;
80253;SDS011;69563;37.974;23.708;2023-04-24T11:27:43;4.82;;;2.38;;
80253;SDS011;69563;37.974;23.708;2023-04-24T11:30:17;4.15;;;2.35;;
80253;SDS011;69563;37.974;23.708;2023-04-24T11:33:01;5.32;;;2.50;;
80253;SDS011;69563;37.974;23.708;2023-04-24T11:35:29;4.25;;;2.40;;
80253;SDS011;69563;37.974;23.708;2023-04-24T11:37:56;3.88;;;2.45;;
80253;SDS011;69563;37.974;23.708;2023-04-24T11:40:22;3.67;;;2.53;;
80253;SDS011;69563;37.974;23.708;2023-04-24T11:42:49;4.13;;;2.17;;
80253;SDS011;69563;37.974;23.708;2023-04-24T11:45:21;3.67;;;2.80;;
80253;SDS011;69563;37.974;23.708;2023-04-24T11:47:52;4.05;;;2.50;;
80253;SDS011;69563;37.974;23.708;2023-04-24T11:50:19;4.72;;;2.70;;
80253;SDS011;69563;37.974;23.708;2023-04-24T11:52:47;6.88;;;3.20;;
80253;SDS011;69563;37.974;23.708;2023-04-24T11:57:47;5.70;;;3.15;;
80253;SDS011;69563;37.974;23.708;2023-04-24T12:00:21;4.00;;;2.58;;
80253;SDS011;69563;37.974;23.708;2023-04-24T12:02:49;3.63;;;2.38;;
80253;SDS011;69563;37.974;23.708;2023-04-24T12:05:26;5.25;;;3.00;;
80253;SDS011;69563;37.974;23.708;2023-04-24T12:07:52;4.72;;;2.88;;
80253;SDS011;69563;37.974;23.708;2023-04-24T12:10:25;5.43;;;2.85;;
80253;SDS011;69563;37.974;23.708;2023-04-24T12:12:53;5.32;;;2.50;;
80253;SDS011;69563;37.974;23.708;2023-04-24T12:15:21;3.17;;;2.17;;
80253;SDS011;69563;37.974;23.708;2023-04-24T12:17:47;4.07;;;2.42;;
80253;SDS011;69563;37.974;23.708;2023-04-24T12:20:15;4.43;;;2.40;;
80253;SDS011;69563;37.974;23.708;2023-04-24T12:25:15;5.22;;;2.28;;
80253;SDS011;69563;37.974;23.708;2023-04-24T12:27:45;4.28;;;2.13;;
80253;SDS011;69563;37.974;23.708;2023-04-24T12:30:16;5.70;;;2.20;;
80253;SDS011;69563;37.974;23.708;2023-04-24T12:32:43;9.73;;;2.17;;
80253;SDS011;69563;37.974;23.708;2023-04-24T12:35:18;4.20;;;2.30;;
80253;SDS011;69563;37.974;23.708;2023-04-24T12:37:45;4.32;;;2.20;;
80253;SDS011;69563;37.974;23.708;2023-04-24T12:40:11;4.53;;;2.20;;
80253;SDS011;69563;37.974;23.708;2023-04-24T12:42:43;3.88;;;2.10;;
80253;SDS011;69563;37.974;23.708;2023-04-24T12:45:11;3.92;;;1.98;;
80253;SDS011;69563;37.974;23.708;2023-04-24T12:47:38;5.95;;;2.05;;
80253;SDS011;69563;37.974;23.708;2023-04-24T12:50:05;4.53;;;2.25;;
80253;SDS011;69563;37.974;23.708;2023-04-24T12:52:32;4.25;;;2.30;;
80253;SDS011;69563;37.974;23.708;2023-04-24T12:54:58;5.55;;;2.25;;
80253;SDS011;69563;37.974;23.708;2023-04-24T12:57:25;3.95;;;2.33;;
80253;SDS011;69563;37.974;23.708;2023-04-24T12:59:56;5.10;;;2.35;;
80253;SDS011;69563;37.974;23.708;2023-04-24T13:02:24;4.10;;;2.10;;
80253;SDS011;69563;37.974;23.708;2023-04-24T13:04:51;4.78;;;2.25;;
80253;SDS011;69563;37.974;23.708;2023-04-24T13:07:18;3.92;;;2.28;;
80253;SDS011;69563;37.974;23.708;2023-04-24T13:09:44;4.22;;;2.28;;
80253;SDS011;69563;37.974;23.708;2023-04-24T13:12:10;6.20;;;2.58;;
80253;SDS011;69563;37.974;23.708;2023-04-24T13:14:37;4.53;;;2.35;;
80253;SDS011;69563;37.974;23.708;2023-04-24T13:17:03;4.93;;;2.20;;
80253;SDS011;69563;37.974;23.708;2023-04-24T13:19:30;3.80;;;2.28;;
80253;SDS011;69563;37.974;23.708;2023-04-24T13:22:01;4.78;;;2.22;;
80253;SDS011;69563;37.974;23.708;2023-04-24T13:24:27;5.68;;;2.10;;
80253;SDS011;69563;37.974;23.708;2023-04-24T13:26:52;2.75;;;1.83;;
80253;SDS011;69563;37.974;23.708;2023-04-24T13:29:18;3.20;;;1.90;;
80253;SDS011;69563;37.974;23.708;2023-04-24T13:31:45;3.58;;;2.00;;
80253;SDS011;69563;37.974;23.708;2023-04-24T13:34:12;5.35;;;2.15;;
80253;SDS011;69563;37.974;23.708;2023-04-24T13:36:38;4.68;;;2.05;;
80253;SDS011;69563;37.974;23.708;2023-04-24T13:39:05;3.58;;;2.00;;
80253;SDS011;69563;37.974;23.708;2023-04-24T13:41:32;3.45;;;1.95;;
80253;SDS011;69563;37.974;23.708;2023-04-24T13:43:58;3.95;;;1.80;;
80253;SDS011;69563;37.974;23.708;2023-04-24T13:46:24;4.32;;;1.85;;
80253;SDS011;69563;37.974;23.708;2023-04-24T13:48:50;6.57;;;2.00;;
80253;SDS011;69563;37.974;23.708;2023-04-24T13:51:16;5.18;;;1.90;;
80253;SDS011;69563;37.974;23.708;2023-04-24T13:53:42;3.42;;;2.10;;
80253;SDS011;69563;37.974;23.708;2023-04-24T13:56:07;4.15;;;1.85;;
80253;SDS011;69563;37.974;23.708;2023-04-24T13:58:34;2.45;;;1.70;;
80253;SDS011;69563;37.974;23.708;2023-04-24T14:01:02;2.72;;;1.70;;
80253;SDS011;69563;37.974;23.708;2023-04-24T14:03:28;5.35;;;2.08;;
80253;SDS011;69563;37.974;23.708;2023-04-24T14:05:54;3.25;;;1.90;;
80253;SDS011;69563;37.974;23.708;2023-04-24T14:08:20;3.33;;;1.90;;
80253;SDS011;69563;37.974;23.708;2023-04-24T14:10:45;3.22;;;2.10;;
80253;SDS011;69563;37.974;23.708;2023-04-24T14:13:11;4.30;;;1.90;;
80253;SDS011;69563;37.974;23.708;2023-04-24T14:15:37;3.40;;;2.00;;
80253;SDS011;69563;37.974;23.708;2023-04-24T14:18:03;5.28;;;2.10;;
80253;SDS011;69563;37.974;23.708;2023-04-24T14:20:29;3.47;;;1.98;;
80253;SDS011;69563;37.974;23.708;2023-04-24T14:22:55;3.58;;;1.83;;
80253;SDS011;69563;37.974;23.708;2023-04-24T14:25:24;2.65;;;1.92;;
80253;SDS011;69563;37.974;23.708;2023-04-24T14:27:50;4.25;;;1.85;;
80253;SDS011;69563;37.974;23.708;2023-04-24T14:30:16;2.00;;;1.63;;
80253;SDS011;69563;37.974;23.708;2023-04-24T14:32:42;4.95;;;2.00;;
80253;SDS011;69563;37.974;23.708;2023-04-24T14:35:08;3.05;;;1.90;;
80253;SDS011;69563;37.974;23.708;2023-04-24T14:37:34;4.47;;;1.95;;
80253;SDS011;69563;37.974;23.708;2023-04-24T14:40:01;2.25;;;1.70;;
80253;SDS011;69563;37.974;23.708;2023-04-24T14:42:27;3.90;;;2.08;;
80253;SDS011;69563;37.974;23.708;2023-04-24T14:44:53;3.13;;;2.03;;
80253;SDS011;69563;37.974;23.708;2023-04-24T14:47:19;3.45;;;1.95;;
80253;SDS011;69563;37.974;23.708;2023-04-24T14:49:47;4.00;;;1.80;;
80253;SDS011;69563;37.974;23.708;2023-04-24T14:52:13;4.32;;;1.70;;